Time;durP1;ratioP1;P1;durP2;ratioP2;P2;SDS_P1;SDS_P2;PMS_P1;PMS_P2;Temp;Humidity;BMP_temperature;BMP_pressure;BME280_temperature;BME280_humidity;BME280_pressure;Samples;Min_cycle;Max_cycle;Signal;HPM_P1;HPM_P2
2022/05/31 00:00:14;;;;;;;;;3.00;3.00;;;;;17.05;37.86;100713.59;5037474;28;45454;-73
2022/05/31 00:02:42;;;;;;;;;4.00;3.00;;;;;16.91;38.07;100695.63;5037348;28;45351;-72
2022/05/31 00:05:09;;;;;;;;;5.00;3.00;;;;;16.76;37.80;100670.63;5023790;28;45256;-74
2022/05/31 00:07:39;;;;;;;;;5.00;4.00;;;;;17.07;38.08;100713.41;5017189;28;46367;-76
2022/05/31 00:10:06;;;;;;;;;3.00;2.00;;;;;17.03;38.23;100707.59;5018557;28;45331;-74
2022/05/31 00:12:32;;;;;;;;;4.33;4.00;;;;;17.07;38.13;100719.63;5020521;28;45323;-73
2022/05/31 00:14:58;;;;;;;;;4.00;3.67;;;;;16.82;38.16;100680.63;5020831;28;45296;-76
2022/05/31 00:17:24;;;;;;;;;4.00;3.67;;;;;16.84;38.26;100698.25;5035175;28;48556;-73
2022/05/31 00:19:49;;;;;;;;;4.00;3.00;;;;;16.68;38.27;100674.25;5035131;28;45266;-77
2022/05/31 00:22:26;;;;;;;;;3.67;3.00;;;;;16.92;38.22;100697.28;5035945;28;45425;-72
2022/05/31 00:24:51;;;;;;;;;4.00;3.00;;;;;16.79;38.06;100662.19;5032297;28;45578;-74
2022/05/31 00:27:20;;;;;;;;;5.00;5.00;;;;;17.12;38.06;100719.88;5038719;28;48117;-74
2022/05/31 00:29:47;;;;;;;;;4.00;4.00;;;;;16.77;38.18;100657.03;5039899;28;45276;-75
2022/05/31 00:32:15;;;;;;;;;4.00;2.33;;;;;16.23;38.37;100584.00;5038547;28;45558;-75
2022/05/31 00:34:46;;;;;;;;;2.67;2.00;;;;;16.70;38.72;100667.69;5040291;28;45472;-72
2022/05/31 00:37:13;;;;;;;;;3.00;2.67;;;;;16.96;38.65;100723.59;5043562;28;48231;-72
2022/05/31 00:39:39;;;;;;;;;2.00;2.00;;;;;16.73;38.53;100693.31;5040622;28;46271;-75
2022/05/31 00:42:08;;;;;;;;;2.00;2.00;;;;;16.90;38.74;100731.56;5040246;28;45347;-74
2022/05/31 00:44:35;;;;;;;;;3.00;2.33;;;;;16.93;38.70;100736.56;5039576;28;45384;-76
2022/05/31 00:47:19;;;;;;;;;2.00;2.00;;;;;16.91;38.75;100727.84;5039379;28;46343;-74
2022/05/31 00:50:07;;;;;;;;;1.33;1.33;;;;;16.26;39.00;100626.56;5038639;28;46088;-74
2022/05/31 00:52:41;;;;;;;;;2.33;2.33;;;;;16.72;38.84;100689.81;5040151;28;45478;-75
2022/05/31 00:55:20;;;;;;;;;2.00;2.00;;;;;16.42;38.75;100653.22;5026527;28;45484;-75
2022/05/31 00:58:00;;;;;;;;;2.67;2.67;;;;;16.84;38.87;100735.00;5034381;28;48184;-74
2022/05/31 01:00:26;;;;;;;;;3.00;3.00;;;;;16.56;39.12;100687.25;5019321;28;45504;-74
2022/05/31 01:02:52;;;;;;;;;4.67;3.00;;;;;16.81;38.59;100728.13;5035183;28;45648;-75
2022/05/31 01:05:19;;;;;;;;;3.00;2.67;;;;;16.82;38.29;100718.22;5020071;28;45274;-73
2022/05/31 01:07:46;;;;;;;;;1.00;1.00;;;;;16.67;38.46;100700.28;5018065;28;46618;-74
2022/05/31 01:10:13;;;;;;;;;2.00;2.00;;;;;16.67;38.42;100700.28;5034827;28;45419;-75
2022/05/31 01:12:42;;;;;;;;;2.33;2.00;;;;;16.54;38.63;100672.38;5019211;28;45235;-73
2022/05/31 01:15:12;;;;;;;;;2.00;2.00;;;;;16.37;38.75;100660.97;5022155;28;45534;-74
2022/05/31 01:17:42;;;;;;;;;4.00;3.00;;;;;16.78;38.64;100717.75;5034451;28;47712;-74
2022/05/31 01:20:12;;;;;;;;;1.33;1.33;;;;;16.08;38.88;100598.22;5019656;28;45304;-73
2022/05/31 01:22:37;;;;;;;;;4.00;4.00;;;;;15.97;38.87;100579.91;5020311;28;45439;-73
2022/05/31 01:25:21;;;;;;;;;3.00;3.00;;;;;16.88;38.82;100717.50;5019640;28;45201;-74
2022/05/31 01:28:11;;;;;;;;;2.67;2.67;;;;;16.78;38.79;100701.66;5034221;28;47390;-74
2022/05/31 01:30:48;;;;;;;;;4.33;1.67;;;;;16.97;39.37;100721.72;5018764;28;45467;-75
2022/05/31 01:33:29;;;;;;;;;4.00;2.33;;;;;16.86;38.57;100706.09;5019078;28;45384;-74
2022/05/31 01:36:01;;;;;;;;;2.00;2.00;;;;;16.97;38.60;100716.38;5022234;28;45497;-75
2022/05/31 01:38:54;;;;;;;;;1.67;1.00;;;;;17.03;38.50;100719.16;5018576;28;46398;-74
2022/05/31 01:41:43;;;;;;;;;2.00;2.00;;;;;17.02;38.13;100719.34;5018467;28;45294;-72
2022/05/31 01:44:14;;;;;;;;;6.33;2.00;;;;;16.67;38.31;100660.00;5013985;28;45331;-74
2022/05/31 01:46:41;;;;;;;;;2.33;2.00;;;;;17.03;37.99;100721.00;4999475;28;45512;-71
2022/05/31 01:49:12;;;;;;;;;1.00;1.00;;;;;16.31;38.38;100602.69;4998829;28;45728;-74
2022/05/31 01:51:40;;;;;;;;;1.00;1.00;;;;;17.00;38.08;100721.34;4998842;28;45354;-74
2022/05/31 01:54:08;;;;;;;;;1.33;1.33;;;;;16.59;38.04;100654.69;4999222;28;45575;-74
2022/05/31 01:56:35;;;;;;;;;1.67;1.00;;;;;16.08;38.07;100566.06;5019189;28;45191;-73
2022/05/31 01:59:03;;;;;;;;;3.33;2.00;;;;;17.06;38.07;100714.44;5000842;28;47182;-75
2022/05/31 02:01:30;;;;;;;;;4.00;2.00;;;;;17.07;38.50;100719.63;5016985;28;45597;-74
2022/05/31 02:03:56;;;;;;;;;4.00;2.00;;;;;16.78;38.21;100663.22;5000722;28;45312;-74
2022/05/31 02:06:25;;;;;;;;;2.67;2.33;;;;;16.77;38.37;100666.94;5000622;28;45508;-75
2022/05/31 02:08:51;;;;;;;;;2.00;2.00;;;;;16.86;38.37;100692.69;5000260;28;47545;-73
2022/05/31 02:11:16;;;;;;;;;2.00;2.00;;;;;16.42;37.89;100629.06;5018334;28;45452;-76
2022/05/31 02:13:42;;;;;;;;;1.33;1.00;;;;;17.13;37.86;100726.91;5018638;28;45239;-75
2022/05/31 02:16:07;;;;;;;;;2.67;1.00;;;;;17.17;37.87;100728.19;4999657;28;45327;-73
2022/05/31 02:21:16;;;;;;;;;2.00;2.00;;;;;17.23;38.27;100722.09;5018243;28;45412;-72
2022/05/31 02:23:42;;;;;;;;;2.67;2.67;;;;;17.19;38.23;100712.72;5007124;28;45547;-74
2022/05/31 02:26:07;;;;;;;;;3.00;3.00;;;;;16.92;38.00;100667.75;4997069;28;45266;-75
2022/05/31 02:28:32;;;;;;;;;2.67;2.67;;;;;17.28;37.64;100730.41;4998544;28;46493;-76
2022/05/31 02:30:58;;;;;;;;;3.00;3.00;;;;;17.25;37.10;100727.28;4998314;28;45471;-73
2022/05/31 02:33:23;;;;;;;;;2.00;1.00;;;;;17.08;37.31;100694.41;4997552;28;45385;-72
2022/05/31 02:35:49;;;;;;;;;1.67;1.67;;;;;16.86;37.16;100661.28;4997366;28;45571;-76
2022/05/31 02:38:15;;;;;;;;;1.67;1.67;;;;;14.78;37.41;100315.50;4998138;28;45858;-75
2022/05/31 02:40:41;;;;;;;;;2.00;2.00;;;;;17.31;38.01;100732.72;4997958;28;45520;-74
2022/05/31 02:43:07;;;;;;;;;2.33;2.33;;;;;17.27;37.27;100728.75;4997171;28;45367;-75
2022/05/31 02:45:33;;;;;;;;;4.00;4.00;;;;;17.29;37.77;100729.41;5016856;28;45508;-74
2022/05/31 02:47:58;;;;;;;;;1.67;1.67;;;;;16.86;37.57;100660.47;5017809;28;45699;-74
2022/05/31 02:50:25;;;;;;;;;2.00;2.00;;;;;16.23;37.54;100544.59;5017907;28;45397;-74
2022/05/31 02:52:50;;;;;;;;;2.00;2.00;;;;;17.31;37.64;100734.59;5020258;28;45183;-76
2022/05/31 02:55:16;;;;;;;;;2.00;2.00;;;;;16.87;38.11;100648.69;5020053;28;45226;-73
2022/05/31 02:57:42;;;;;;;;;1.00;1.00;;;;;17.29;37.64;100720.50;5019048;28;48610;-74
2022/05/31 03:00:08;;;;;;;;;4.00;1.67;;;;;17.30;37.94;100716.78;5017190;28;45431;-74
2022/05/31 03:02:35;;;;;;;;;2.00;2.00;;;;;17.29;37.50;100718.66;5017715;28;45324;-74
2022/05/31 03:05:01;;;;;;;;;1.00;1.00;;;;;17.06;37.71;100682.19;5018817;28;45516;-73
2022/05/31 03:07:26;;;;;;;;;3.00;3.00;;;;;17.13;37.44;100700.03;5017358;28;46118;-75
2022/05/31 03:09:52;;;;;;;;;4.00;2.00;;;;;16.95;37.77;100670.91;5017746;28;45277;-74
2022/05/31 03:12:19;;;;;;;;;2.33;2.33;;;;;17.15;38.03;100703.38;5017901;28;45467;-75
2022/05/31 03:14:49;;;;;;;;;3.33;3.00;;;;;17.12;38.13;100709.13;5017975;28;45242;-74
2022/05/31 03:17:20;;;;;;;;;2.33;2.33;;;;;17.15;37.87;100716.81;5017643;28;46360;-75
2022/05/31 03:19:50;;;;;;;;;3.00;3.00;;;;;16.81;37.99;100673.59;5017852;28;45248;-75
2022/05/31 03:22:25;;;;;;;;;2.00;2.00;;;;;16.00;37.90;100541.16;5034157;28;45557;-74
2022/05/31 03:25:00;;;;;;;;;2.00;2.00;;;;;16.72;37.89;100662.13;5017222;28;45345;-75
2022/05/31 03:27:27;;;;;;;;;2.00;2.00;;;;;16.80;37.92;100677.28;5017196;28;45523;-73
2022/05/31 03:29:55;;;;;;;;;3.33;2.33;;;;;16.75;37.80;100652.88;5017233;28;45547;-76
2022/05/31 03:32:22;;;;;;;;;3.00;3.00;;;;;17.07;37.79;100708.88;5018461;28;45318;-73
2022/05/31 03:34:48;;;;;;;;;2.33;2.33;;;;;17.05;38.14;100713.59;5018248;28;45336;-75
2022/05/31 03:37:14;;;;;;;;;1.67;1.67;;;;;16.63;38.01;100647.94;5015376;28;48062;-74
2022/05/31 03:39:39;;;;;;;;;2.00;2.00;;;;;16.29;38.12;100602.88;5016906;28;45322;-75
2022/05/31 03:42:08;;;;;;;;;2.67;2.67;;;;;16.65;38.56;100658.50;5015954;28;45924;-74
2022/05/31 03:44:34;;;;;;;;;4.00;2.67;;;;;16.86;38.13;100681.94;5017410;28;45632;-75
2022/05/31 03:47:02;;;;;;;;;3.33;2.33;;;;;16.11;37.62;100565.69;5020399;28;46170;-74
2022/05/31 03:49:27;;;;;;;;;3.67;3.00;;;;;16.88;38.10;100686.09;5020129;28;45517;-76
2022/05/31 03:51:52;;;;;;;;;2.00;2.00;;;;;17.07;38.19;100734.91;5020507;28;45442;-75
2022/05/31 03:54:18;;;;;;;;;4.00;2.67;;;;;16.29;37.81;100605.56;5020622;28;45365;-74
2022/05/31 03:56:43;;;;;;;;;4.00;4.00;;;;;16.96;37.12;100703.94;5020567;28;45929;-75
2022/05/31 03:59:09;;;;;;;;;4.00;4.00;;;;;16.27;37.85;100593.34;5019118;28;45237;-75
2022/05/31 04:01:34;;;;;;;;;3.00;3.00;;;;;17.00;37.39;100721.34;5020609;28;45458;-74
2022/05/31 04:03:59;;;;;;;;;4.00;3.33;;;;;17.02;37.69;100713.97;5018672;28;45467;-78
2022/05/31 04:06:25;;;;;;;;;4.67;4.00;;;;;17.07;37.48;100719.63;5051822;28;48032;-75
2022/05/31 04:08:50;;;;;;;;;5.33;4.00;;;;;17.01;38.00;100706.91;5020080;28;45538;-74
2022/05/31 04:11:16;;;;;;;;;3.33;3.00;;;;;16.92;37.55;100686.56;5020152;28;45541;-73
2022/05/31 04:13:42;;;;;;;;;3.33;2.00;;;;;17.04;37.51;100706.56;5019236;28;45553;-74
2022/05/31 04:16:11;;;;;;;;;4.33;3.33;;;;;17.01;37.37;100709.59;5018690;28;47911;-74
2022/05/31 04:18:37;;;;;;;;;2.67;2.67;;;;;16.98;38.84;100707.28;5027645;28;45217;-75
2022/05/31 04:21:04;;;;;;;;;4.00;4.00;;;;;16.65;39.36;100667.38;5039161;28;45398;-75
2022/05/31 04:26:14;;;;;;;;;5.00;4.00;;;;;16.42;40.46;100645.16;5039879;28;45411;-75
2022/05/31 04:28:39;;;;;;;;;4.33;4.00;;;;;16.81;40.92;100713.84;5038148;28;45406;-75
2022/05/31 04:31:05;;;;;;;;;5.67;5.00;;;;;16.03;40.35;100575.69;5037848;28;45495;-74
2022/05/31 04:33:30;;;;;;;;;5.33;4.67;;;;;16.88;40.67;100709.44;5040194;28;45491;-73
2022/05/31 04:36:00;;;;;;;;;5.67;5.33;;;;;16.70;40.88;100686.47;5039141;28;45227;-74
2022/05/31 04:38:26;;;;;;;;;5.00;5.00;;;;;16.01;40.50;100564.28;5038246;28;46196;-73
2022/05/31 04:40:52;;;;;;;;;5.33;4.33;;;;;16.52;40.42;100656.44;5038387;28;45550;-75
2022/05/31 04:43:17;;;;;;;;;4.33;4.33;;;;;15.49;40.67;100503.44;5038644;28;45580;-74
2022/05/31 04:45:43;;;;;;;;;6.33;5.00;;;;;16.79;40.64;100697.09;5041214;28;46546;-73
2022/05/31 04:48:08;;;;;;;;;6.00;4.00;;;;;16.77;40.32;100699.16;5038465;28;45432;-75
2022/05/31 04:50:34;;;;;;;;;3.67;3.67;;;;;16.42;40.26;100637.13;5039602;28;45277;-75
2022/05/31 04:53:00;;;;;;;;;5.00;4.00;;;;;16.92;40.61;100713.41;5039963;28;45330;-73
2022/05/31 04:55:25;;;;;;;;;5.00;5.00;;;;;16.65;40.73;100656.66;5037518;28;46269;-72
2022/05/31 04:57:51;;;;;;;;;3.00;3.00;;;;;17.17;40.37;100728.19;5038432;28;45320;-73
2022/05/31 05:00:16;;;;;;;;;6.00;6.00;;;;;15.15;40.36;100386.91;5039958;28;45468;-74
2022/05/31 05:02:42;;;;;;;;;6.67;6.67;;;;;17.18;40.49;100708.38;5054869;28;45269;-75
2022/05/31 05:05:08;;;;;;;;;7.33;6.00;;;;;17.31;40.05;100732.72;5054844;28;47566;-76
2022/05/31 05:07:33;;;;;;;;;8.00;6.67;;;;;17.11;40.45;100685.16;5039666;28;45230;-75
2022/05/31 05:09:59;;;;;;;;;7.33;6.00;;;;;17.45;40.59;100730.22;5039009;28;45370;-76
2022/05/31 05:12:25;;;;;;;;;7.00;6.00;;;;;17.23;39.82;100689.84;5055093;28;45264;-73
2022/05/31 05:14:50;;;;;;;;;5.33;5.33;;;;;17.33;40.21;100706.50;5054375;28;46701;-73
2022/05/31 05:17:16;;;;;;;;;5.33;5.33;;;;;17.58;39.47;100754.53;5055672;28;45285;-75
2022/05/31 05:19:42;;;;;;;;;7.67;6.33;;;;;17.53;39.61;100722.00;5024760;28;45270;-76
2022/05/31 05:22:07;;;;;;;;;10.00;8.00;;;;;17.29;39.36;100675.66;5019483;28;45331;-75
2022/05/31 05:24:32;;;;;;;;;4.00;2.00;;;;;17.16;38.94;100655.84;5020837;28;46243;-73
2022/05/31 05:26:58;;;;;;;;;4.33;4.33;;;;;17.78;39.21;100746.72;5032705;28;45652;-74
2022/05/31 05:32:08;;;;;;;;;7.67;5.00;;;;;17.91;38.93;100755.75;5038945;28;45241;-73
2022/05/31 05:34:34;;;;;;;;;7.00;7.00;;;;;18.00;39.35;100751.06;5035831;28;45604;-74
2022/05/31 05:36:59;;;;;;;;;3.67;3.00;;;;;18.05;39.49;100756.75;5032796;28;45611;-74
2022/05/31 05:39:25;;;;;;;;;4.67;4.67;;;;;18.11;39.19;100752.44;5034378;28;45481;-76
2022/05/31 05:41:50;;;;;;;;;4.00;4.00;;;;;18.12;38.50;100738.78;5034645;28;45533;-75
2022/05/31 05:44:15;;;;;;;;;4.00;4.00;;;;;18.27;38.38;100757.56;5021905;28;46016;-76
2022/05/31 05:46:41;;;;;;;;;4.67;4.67;;;;;18.37;38.00;100759.91;5018647;28;45420;-73
2022/05/31 05:49:07;;;;;;;;;4.00;4.00;;;;;18.31;37.58;100737.28;5018454;28;45348;-74
2022/05/31 05:51:33;;;;;;;;;4.00;4.00;;;;;18.32;37.62;100725.50;5041104;28;45402;-73
2022/05/31 05:54:02;;;;;;;;;6.33;6.33;;;;;17.88;37.67;100640.50;5037098;28;48117;-74
2022/05/31 05:56:28;;;;;;;;;4.00;4.00;;;;;18.30;38.00;100695.25;5037067;28;45272;-77
2022/05/31 05:58:54;;;;;;;;;6.00;5.00;;;;;18.70;37.05;100733.28;5038217;28;45325;-77
2022/05/31 06:01:28;;;;;;;;;12.00;11.33;;;;;18.58;36.85;100705.19;5035140;28;45364;-71
2022/05/31 06:04:02;;;;;;;;;5.33;4.00;;;;;18.21;37.22;100629.97;5025746;28;46568;-76
2022/05/31 06:06:31;;;;;;;;;5.67;4.00;;;;;19.02;37.29;100762.28;5035549;28;45606;-75
2022/05/31 06:09:11;;;;;;;;;7.67;6.00;;;;;18.92;37.01;100731.31;5036846;28;46017;-73
2022/05/31 06:11:50;;;;;;;;;11.00;8.33;;;;;19.09;36.61;100755.06;5038174;28;45433;-73
2022/05/31 06:14:27;;;;;;;;;6.33;6.33;;;;;18.86;37.15;100707.88;5019458;28;45430;-73
2022/05/31 06:16:57;;;;;;;;;10.33;7.33;;;;;19.22;36.53;100761.53;5026181;28;46420;-77
2022/05/31 06:19:29;;;;;;;;;13.67;7.33;;;;;19.07;36.69;100746.34;5032879;28;45441;-80
2022/05/31 06:21:55;;;;;;;;;6.67;6.33;;;;;19.23;36.58;100774.81;5032630;28;45582;-75
2022/05/31 06:24:23;;;;;;;;;7.33;7.33;;;;;18.93;36.50;100725.75;5035645;28;46342;-75
2022/05/31 06:26:49;;;;;;;;;7.00;7.00;;;;;19.21;36.93;100770.63;5037450;28;45568;-76
2022/05/31 06:29:15;;;;;;;;;10.67;7.00;;;;;19.11;36.97;100744.91;5030653;28;45343;-77
2022/05/31 06:31:40;;;;;;;;;9.00;9.00;;;;;19.08;37.14;100729.13;5028829;28;45316;-76
2022/05/31 06:34:06;;;;;;;;;9.33;8.33;;;;;18.77;37.29;100670.31;5027529;28;45631;-72
2022/05/31 06:36:31;;;;;;;;;13.33;9.67;;;;;18.63;37.37;100635.47;5017629;28;45567;-75
2022/05/31 06:38:56;;;;;;;;;9.67;8.00;;;;;19.59;37.79;100762.97;5038727;28;45350;-75
2022/05/31 06:41:22;;;;;;;;;8.67;7.67;;;;;19.76;37.32;100748.06;5038145;28;45528;-76
2022/05/31 06:43:47;;;;;;;;;7.33;7.33;;;;;19.71;36.20;100708.22;5036806;28;46628;-76
2022/05/31 06:46:13;;;;;;;;;5.00;5.00;;;;;20.01;36.15;100664.66;5023448;28;45178;-75
2022/05/31 06:48:39;;;;;;;;;9.33;7.33;;;;;20.99;34.74;100689.03;5042370;28;45337;-73
2022/05/31 06:51:06;;;;;;;;;9.00;7.67;;;;;21.80;33.57;100752.34;5034260;28;45467;-76
2022/05/31 06:59:01;;;;;;;;;7.00;7.00;;;;;22.55;33.03;100776.00;5036233;28;45269;-76
2022/05/31 07:01:37;;;;;;;;;7.00;6.33;;;;;22.53;32.38;100776.22;5036602;28;45552;-77
2022/05/31 07:04:03;;;;;;;;;10.00;7.00;;;;;22.45;32.62;100771.94;5024298;28;45752;-77
2022/05/31 07:06:31;;;;;;;;;7.00;7.00;;;;;22.38;31.93;100770.31;5021728;28;45407;-76
2022/05/31 07:08:56;;;;;;;;;11.67;7.00;;;;;22.03;31.94;100735.56;5038895;28;45292;-79
2022/05/31 07:11:22;;;;;;;;;9.00;9.00;;;;;21.98;32.63;100751.59;5038507;28;45348;-79
2022/05/31 07:13:48;;;;;;;;;6.67;6.67;;;;;21.47;32.27;100682.22;5040063;28;45486;-76
2022/05/31 07:16:14;;;;;;;;;11.00;10.00;;;;;21.82;33.08;100761.09;5038005;28;45261;-76
2022/05/31 07:18:40;;;;;;;;;10.67;7.00;;;;;21.87;32.76;100779.38;5032903;28;45479;-76
2022/05/31 07:21:06;;;;;;;;;8.33;8.33;;;;;21.19;32.55;100662.75;5019637;28;45304;-79
2022/05/31 07:23:31;;;;;;;;;8.67;6.00;;;;;21.91;32.63;100786.03;5016971;28;47315;-75
2022/05/31 07:25:59;;;;;;;;;8.33;8.33;;;;;21.91;32.08;100787.91;5035120;28;45657;-76
2022/05/31 07:28:28;;;;;;;;;16.00;15.00;;;;;21.41;32.81;100698.44;5018368;28;45382;-77
2022/05/31 07:30:54;;;;;;;;;8.67;7.33;;;;;21.95;32.42;100781.81;5017238;28;45609;-77
2022/05/31 07:33:20;;;;;;;;;4.00;4.00;;;;;21.69;31.62;100750.34;5033488;28;45250;-74
2022/05/31 07:35:47;;;;;;;;;8.00;6.67;;;;;21.84;31.45;100785.25;5030865;28;45369;-76
2022/05/31 07:38:12;;;;;;;;;9.00;9.00;;;;;21.69;31.71;100779.28;5018105;28;45305;-74
2022/05/31 07:40:38;;;;;;;;;9.33;7.00;;;;;21.40;32.16;100754.41;5024913;28;45761;-77
2022/05/31 07:43:04;;;;;;;;;9.33;9.33;;;;;21.31;32.17;100742.19;5053100;28;48501;-75
2022/05/31 07:45:29;;;;;;;;;9.00;9.00;;;;;21.56;32.75;100794.50;5037146;28;45747;-75
2022/05/31 07:47:55;;;;;;;;;7.67;6.67;;;;;21.48;32.73;100792.06;5037174;28;45874;-76
2022/05/31 07:50:20;;;;;;;;;6.33;6.33;;;;;20.77;32.45;100675.81;5035840;28;45606;-76
2022/05/31 07:52:46;;;;;;;;;7.33;6.67;;;;;21.18;32.37;100743.03;5038204;28;46348;-75
2022/05/31 07:55:11;;;;;;;;;4.67;4.67;;;;;21.65;32.23;100792.41;5015932;28;46336;-80
2022/05/31 08:00:21;;;;;;;;;8.33;7.00;;;;;21.69;32.08;100787.41;5021184;28;45440;-77
2022/05/31 08:02:47;;;;;;;;;10.67;8.33;;;;;21.88;31.42;100807.28;5039475;28;48759;-74
2022/05/31 08:05:13;;;;;;;;;11.67;11.33;;;;;21.42;31.80;100711.75;5035016;28;45385;-75
2022/05/31 08:07:39;;;;;;;;;5.67;4.00;;;;;21.50;31.26;100697.16;5037803;28;45482;-78
2022/05/31 08:10:06;;;;;;;;;5.00;5.00;;;;;21.98;31.01;100758.91;5038613;28;45463;-74
2022/05/31 08:12:31;;;;;;;;;6.33;5.67;;;;;22.04;30.37;100748.06;5026102;28;46787;-75
2022/05/31 08:14:56;;;;;;;;;5.00;4.67;;;;;22.52;30.00;100793.53;5021453;28;45396;-74
2022/05/31 08:17:22;;;;;;;;;3.00;3.00;;;;;22.68;29.86;100790.28;5037217;28;45462;-75
2022/05/31 08:19:47;;;;;;;;;5.00;5.00;;;;;22.61;29.74;100765.09;5036757;28;45283;-73
2022/05/31 08:22:13;;;;;;;;;5.67;5.67;;;;;22.94;29.44;100726.84;5036550;28;46627;-79
2022/05/31 08:24:38;;;;;;;;;6.00;6.00;;;;;24.07;28.98;100780.53;5037372;28;45590;-77
2022/05/31 08:27:04;;;;;;;;;4.67;2.33;;;;;24.32;28.32;100742.34;5037132;28;45553;-75
2022/05/31 08:29:30;;;;;;;;;5.67;5.00;;;;;24.68;27.43;100740.47;5025614;28;45392;-77
2022/05/31 08:31:58;;;;;;;;;5.33;5.00;;;;;25.27;27.05;100790.22;5024434;28;45864;-76
2022/05/31 08:34:27;;;;;;;;;4.00;4.00;;;;;25.58;27.27;100794.38;5018922;28;45284;-77
2022/05/31 08:36:53;;;;;;;;;5.33;5.33;;;;;25.85;27.01;100764.72;5035433;28;45315;-75
2022/05/31 08:39:19;;;;;;;;;6.00;4.67;;;;;26.28;26.52;100789.47;5023595;28;45415;-75
2022/05/31 08:41:51;;;;;;;;;26.67;25.33;;;;;25.89;26.08;100643.31;5050045;28;48314;-77
2022/05/31 08:44:16;;;;;;;;;8.00;8.00;;;;;27.41;24.77;100781.91;5033687;28;45399;-76
2022/05/31 08:46:53;;;;;;;;;6.67;4.33;;;;;27.96;24.19;100791.84;5036051;28;45910;-76
2022/05/31 08:53:10;;;;;;;;;6.67;5.33;;;;;28.56;22.68;100779.00;5040583;28;45553;-78
2022/05/31 08:58:34;;;;;;;;;2.00;2.00;;;;;28.96;21.79;100745.63;5029471;28;45465;-76
2022/05/31 09:01:06;;;;;;;;;5.00;4.00;;;;;29.71;21.88;100790.06;5038607;28;45443;-76
2022/05/31 09:03:46;;;;;;;;;4.00;4.00;;;;;30.30;21.48;100775.94;5036363;28;47488;-77
2022/05/31 09:06:51;;;;;;;;;5.67;5.00;;;;;31.02;20.07;100782.97;5031675;28;45556;-77
2022/05/31 09:09:24;;;;;;;;;4.00;3.00;;;;;29.54;19.95;100436.91;5027753;28;45459;-77
2022/05/31 09:12:03;;;;;;;;;4.33;4.33;;;;;32.19;19.08;100785.19;5035884;28;45437;-76
2022/05/31 09:14:53;;;;;;;;;3.00;3.00;;;;;32.75;18.52;100780.03;5019895;28;45220;-77
2022/05/31 09:17:39;;;;;;;;;2.33;2.33;;;;;33.67;18.00;100776.22;5021620;28;45575;-78
2022/05/31 09:20:11;;;;;;;;;3.33;3.33;;;;;34.20;16.43;100734.59;5036621;28;45600;-79
2022/05/31 09:22:42;;;;;;;;;2.00;2.00;;;;;35.20;16.47;100750.41;5029077;28;45217;-75
2022/05/31 09:25:08;;;;;;;;;4.33;4.33;;;;;35.85;14.64;100769.50;5020097;28;46313;-75
2022/05/31 09:27:46;;;;;;;;;2.33;2.33;;;;;36.16;14.06;100730.00;5023658;28;45357;-75
2022/05/31 09:30:18;;;;;;;;;3.67;3.67;;;;;36.88;14.17;100779.66;5019661;28;45458;-77
2022/05/31 09:33:04;;;;;;;;;3.67;3.00;;;;;37.36;13.86;100784.41;5038577;28;45560;-74
2022/05/31 09:35:46;;;;;;;;;3.67;3.67;;;;;37.98;12.84;100792.50;5033415;28;46595;-76
2022/05/31 09:38:24;;;;;;;;;3.67;3.00;;;;;38.17;12.85;100709.66;5038628;28;45533;-76
2022/05/31 09:41:05;;;;;;;;;7.00;4.00;;;;;39.04;12.30;100748.28;5039859;28;45310;-75
2022/05/31 09:43:47;;;;;;;;;3.33;3.33;;;;;39.24;12.17;100753.09;5039654;28;45629;-74
2022/05/31 09:46:47;;;;;;;;;3.33;3.00;;;;;39.36;11.71;100777.41;5037957;28;47960;-77
2022/05/31 09:49:22;;;;;;;;;1.67;1.67;;;;;38.70;11.54;100699.25;5038514;28;45343;-77
2022/05/31 09:51:47;;;;;;;;;2.00;2.00;;;;;38.69;11.61;100751.25;5021702;28;45493;-76
2022/05/31 09:57:06;;;;;;;;;2.33;2.33;;;;;38.21;12.13;100768.16;5039330;28;45502;-76
2022/05/31 09:59:35;;;;;;;;;3.67;2.67;;;;;37.08;13.10;100745.81;5040096;28;45403;-76
2022/05/31 10:02:25;;;;;;;;;3.00;3.00;;;;;36.51;13.29;100767.88;5039922;28;45277;-75
2022/05/31 10:05:21;;;;;;;;;5.33;2.00;;;;;35.21;14.13;100748.47;5038873;28;45377;-78
2022/05/31 10:07:50;;;;;;;;;2.33;1.67;;;;;34.25;15.10;100765.72;5034550;28;47435;-76
2022/05/31 10:10:24;;;;;;;;;1.67;1.67;;;;;33.29;14.91;100765.13;5029633;28;46144;-76
2022/05/31 10:12:56;;;;;;;;;2.33;2.33;;;;;31.81;16.03;100709.84;5017391;28;45255;-75
2022/05/31 10:15:49;;;;;;;;;2.00;2.00;;;;;31.05;17.29;100761.31;5019153;28;45531;-76
2022/05/31 10:18:25;;;;;;;;;3.00;3.00;;;;;29.49;18.14;100650.56;5031185;28;45705;-75
2022/05/31 10:21:02;;;;;;;;;3.00;3.00;;;;;29.33;18.58;100710.75;5038918;28;45497;-77
2022/05/31 10:23:41;;;;;;;;;2.00;2.00;;;;;28.95;18.01;100717.44;5038904;28;45333;-76
2022/05/31 10:26:06;;;;;;;;;4.33;3.00;;;;;28.81;18.07;100770.13;5032497;28;45527;-78
2022/05/31 10:28:42;;;;;;;;;4.00;4.00;;;;;28.30;18.33;100776.06;5034611;28;47017;-79
2022/05/31 10:31:31;;;;;;;;;6.00;3.00;;;;;27.86;19.15;100769.91;5028868;28;45451;-76
2022/05/31 10:33:59;;;;;;;;;3.00;2.00;;;;;27.67;19.73;100771.31;5019132;28;45403;-78
2022/05/31 10:36:29;;;;;;;;;3.67;3.00;;;;;27.27;20.03;100745.16;5035153;28;45468;-74
2022/05/31 10:38:58;;;;;;;;;5.00;2.00;;;;;26.88;20.04;100712.44;5018577;28;46143;-75
2022/05/31 10:41:29;;;;;;;;;2.67;2.67;;;;;27.04;20.11;100769.97;5018950;28;45487;-76
2022/05/31 10:44:26;;;;;;;;;2.00;2.00;;;;;26.76;20.85;100760.81;5038359;28;45443;-74
2022/05/31 10:47:02;;;;;;;;;6.67;4.67;;;;;26.54;21.22;100763.47;5038469;28;45466;-77
2022/05/31 10:49:27;;;;;;;;;2.67;2.67;;;;;26.09;21.34;100706.31;5038785;28;46339;-74
2022/05/31 10:52:04;;;;;;;;;3.00;3.00;;;;;26.44;21.65;100770.69;5039062;28;45478;-77
2022/05/31 10:54:54;;;;;;;;;5.00;3.00;;;;;25.87;21.66;100686.31;5039071;28;45483;-77
2022/05/31 10:57:29;;;;;;;;;8.00;8.00;;;;;26.35;22.19;100776.53;5039623;28;45492;-75
2022/05/31 11:00:04;;;;;;;;;2.00;2.00;;;;;26.33;21.74;100781.38;5036005;28;47121;-80
2022/05/31 11:02:54;;;;;;;;;2.67;2.67;;;;;25.88;21.46;100707.03;5037849;28;45452;-74
2022/05/31 11:05:32;;;;;;;;;2.33;2.33;;;;;25.98;21.87;100731.72;5038095;28;45347;-77
2022/05/31 11:11:29;;;;;;;;;3.67;1.00;;;;;25.53;21.85;100697.13;5039544;28;45289;-78
2022/05/31 11:14:13;;;;;;;;;1.00;1.00;;;;;25.86;22.17;100780.81;5041911;28;45264;-78
2022/05/31 11:17:03;;;;;;;;;3.33;3.33;;;;;25.34;22.67;100715.53;5035877;28;45215;-77
2022/05/31 11:20:04;;;;;;;;;2.00;2.00;;;;;25.80;22.50;100783.69;5021105;28;45449;-75
2022/05/31 11:23:07;;;;;;;;;2.00;2.00;;;;;25.78;22.03;100782.03;5032316;28;45587;-74
2022/05/31 11:25:49;;;;;;;;;2.00;2.00;;;;;25.64;22.46;100780.66;5039214;28;45296;-79
2022/05/31 11:28:26;;;;;;;;;4.33;3.00;;;;;25.58;23.16;100797.09;5040155;28;45576;-79
2022/05/31 11:31:23;;;;;;;;;5.00;4.00;;;;;25.54;23.31;100785.88;5037758;28;45653;-76
2022/05/31 11:34:07;;;;;;;;;3.00;3.00;;;;;25.52;23.55;100790.75;5038217;28;46923;-76
2022/05/31 11:36:51;;;;;;;;;5.00;4.00;;;;;25.32;23.48;100787.59;5020614;28;45500;-75
2022/05/31 11:40:03;;;;;;;;;2.67;2.67;;;;;24.81;23.62;100726.59;5017209;28;45440;-76
2022/05/31 11:43:01;;;;;;;;;4.33;3.00;;;;;24.29;23.31;100647.72;5018392;28;45300;-78
2022/05/31 11:45:36;;;;;;;;;2.33;2.33;;;;;25.07;23.43;100796.88;5032527;28;46516;-75
2022/05/31 11:48:22;;;;;;;;;3.33;2.67;;;;;25.03;23.61;100795.69;5032913;28;46208;-73
2022/05/31 11:51:07;;;;;;;;;4.00;4.00;;;;;25.04;23.38;100801.97;5017789;28;45277;-75
2022/05/31 11:53:44;;;;;;;;;2.67;2.67;;;;;24.91;23.54;100774.97;5051043;28;45403;-76
2022/05/31 11:56:24;;;;;;;;;3.00;3.00;;;;;24.94;23.23;100797.06;5024327;28;45600;-76
2022/05/31 11:59:06;;;;;;;;;4.00;4.00;;;;;24.93;23.55;100800.88;5028804;28;45506;-77
2022/05/31 12:02:02;;;;;;;;;5.33;5.33;;;;;24.54;23.80;100753.47;5035825;28;45214;-76
2022/05/31 12:04:42;;;;;;;;;3.67;3.67;;;;;24.76;24.35;100795.31;5038304;28;45175;-74
2022/05/31 12:07:37;;;;;;;;;2.00;2.00;;;;;24.72;24.80;100804.19;5052463;28;46536;-73
2022/05/31 12:10:22;;;;;;;;;4.33;3.00;;;;;24.22;24.78;100739.31;5034319;28;45620;-73